Time;durP1;ratioP1;P1;durP2;ratioP2;P2;SDS_P1;SDS_P2;PMS_P1;PMS_P2;Temp;Humidity;BMP_temperature;BMP_pressure;BME280_temperature;BME280_humidity;BME280_pressure;Samples;Min_cycle;Max_cycle;Signal;HPM_P1;HPM_P2
2023/05/14 00:01:07;;;;;;;;;;;;;;;8.74;100.00;101334.06;5074271;28;19955;-93
2023/05/14 00:03:32;;;;;;;;;;;;;;;8.78;100.00;101335.66;5074083;28;19917;-92
2023/05/14 00:05:57;;;;;;;;;;;;;;;8.78;100.00;101330.50;5075087;28;19916;-93
2023/05/14 00:08:22;;;;;;;;;;;;;;;8.71;100.00;101329.88;5073765;28;19916;-92
2023/05/14 00:10:48;;;;;;;;;;;;;;;8.72;100.00;101325.56;5073771;28;19917;-91
2023/05/14 00:13:13;;;;;;;;;;;;;;;8.73;100.00;101322.94;5074868;28;19986;-93
2023/05/14 00:15:38;;;;;;;;;;;;;;;8.82;100.00;101326.91;5073882;28;19916;-92
2023/05/14 00:18:03;;;;;;;;;;;;;;;8.75;100.00;101318.56;5073606;28;20378;-92
2023/05/14 00:20:29;;;;;;;;;;;;;;;8.67;100.00;101327.44;5073305;28;20427;-92
2023/05/14 00:22:55;;;;;;;;;;;;;;;8.60;100.00;101315.69;5073551;28;19916;-93
2023/05/14 00:25:20;;;;;;;;;;;;;;;8.52;100.00;101326.25;5073770;28;20019;-92
2023/05/14 00:27:45;;;;;;;;;;;;;;;8.44;100.00;101325.69;5073197;28;20038;-93
2023/05/14 00:30:11;;;;;;;;;;;;;;;8.42;100.00;101332.63;5073344;28;19931;-93
2023/05/14 00:32:36;;;;;;;;;;;;;;;8.43;100.00;101329.13;5073292;28;19923;-92
2023/05/14 00:35:03;;;;;;;;;;;;;;;8.29;100.00;101327.84;5074331;28;19917;-92
2023/05/14 00:37:28;;;;;;;;;;;;;;;8.33;100.00;101315.72;5074349;28;20480;-91
2023/05/14 00:39:53;;;;;;;;;;;;;;;8.25;100.00;101313.41;5074727;28;20011;-92
2023/05/14 00:42:18;;;;;;;;;;;;;;;8.34;100.00;101314.84;5073250;28;19916;-92
2023/05/14 00:44:44;;;;;;;;;;;;;;;8.14;100.00;101316.34;5072902;28;19924;-92
2023/05/14 00:47:09;;;;;;;;;;;;;;;8.45;100.00;101312.75;5073929;28;20332;-92
2023/05/14 00:49:34;;;;;;;;;;;;;;;8.14;100.00;101313.78;5072684;28;20030;-92
2023/05/14 00:51:59;;;;;;;;;;;;;;;8.04;100.00;101317.53;5073911;28;20003;-91
2023/05/14 00:54:25;;;;;;;;;;;;;;;8.07;100.00;101314.00;5072851;28;19962;-91
2023/05/14 00:56:51;;;;;;;;;;;;;;;8.06;100.00;101310.59;5074093;28;19923;-92
2023/05/14 00:59:16;;;;;;;;;;;;;;;8.05;100.00;101296.09;5073645;28;20441;-92
2023/05/14 01:01:42;;;;;;;;;;;;;;;8.04;100.00;101296.94;5074003;28;19969;-91
2023/05/14 01:04:09;;;;;;;;;;;;;;;8.01;100.00;101298.81;5072531;28;19917;-91
2023/05/14 01:07:00;;;;;;;;;;;;;;;7.84;100.00;101282.19;5073798;28;19924;-92
2023/05/14 01:09:25;;;;;;;;;;;;;;;7.77;100.00;101283.28;5068004;28;19917;-92
2023/05/14 01:11:51;;;;;;;;;;;;;;;7.86;100.00;101282.16;5072355;28;20293;-92
2023/05/14 01:14:28;;;;;;;;;;;;;;;7.67;100.00;101282.72;5073312;28;20392;-93
2023/05/14 01:16:56;;;;;;;;;;;;;;;7.44;100.00;101278.31;5072670;28;19917;-93
2023/05/14 01:19:31;;;;;;;;;;;;;;;7.54;100.00;101273.75;5073491;28;19916;-93
2023/05/14 01:21:56;;;;;;;;;;;;;;;7.57;100.00;101272.81;5071987;28;20377;-93
2023/05/14 01:24:21;;;;;;;;;;;;;;;7.55;100.00;101260.00;5073369;28;20019;-94
2023/05/14 01:26:46;;;;;;;;;;;;;;;7.74;100.00;101267.13;5073312;28;19959;-93
2023/05/14 01:29:12;;;;;;;;;;;;;;;7.72;100.00;101259.47;5076948;28;19916;-93
2023/05/14 01:31:39;;;;;;;;;;;;;;;7.63;100.00;101260.63;5075737;28;19923;-92
2023/05/14 01:34:05;;;;;;;;;;;;;;;7.61;100.00;101256.41;5053213;28;19971;-92
2023/05/14 01:36:31;;;;;;;;;;;;;;;7.60;100.00;101260.69;5053070;28;19920;-92
2023/05/14 01:38:58;;;;;;;;;;;;;;;7.48;100.00;101261.06;5051422;28;19916;-93
2023/05/14 01:41:24;;;;;;;;;;;;;;;7.53;100.00;101254.06;5052122;28;19917;-93
2023/05/14 01:43:49;;;;;;;;;;;;;;;7.47;100.00;101259.41;5053237;28;19917;-93
2023/05/14 01:46:18;;;;;;;;;;;;;;;7.55;100.00;101251.47;5051819;28;20394;-92
2023/05/14 01:48:43;;;;;;;;;;;;;;;7.59;100.00;101261.59;5052975;28;19962;-92
2023/05/14 01:51:09;;;;;;;;;;;;;;;7.50;100.00;101254.16;5054086;28;19917;-92
2023/05/14 01:53:34;;;;;;;;;;;;;;;7.53;100.00;101255.78;5053268;28;19917;-94
2023/05/14 01:55:59;;;;;;;;;;;;;;;7.40;100.00;101263.06;5052152;28;19924;-94
2023/05/14 01:58:24;;;;;;;;;;;;;;;7.46;100.00;101255.13;5052556;28;19917;-93
2023/05/14 02:00:50;;;;;;;;;;;;;;;7.48;100.00;101259.34;5054884;28;20448;-93
2023/05/14 02:03:15;;;;;;;;;;;;;;;7.52;100.00;101252.41;5053845;28;20325;-93
2023/05/14 02:05:40;;;;;;;;;;;;;;;7.14;100.00;101254.41;5053853;28;19916;-93
2023/05/14 02:08:05;;;;;;;;;;;;;;;7.11;100.00;101245.97;5053343;28;19916;-92
2023/05/14 02:10:31;;;;;;;;;;;;;;;7.18;100.00;101243.16;5051865;28;19921;-91
2023/05/14 02:12:56;;;;;;;;;;;;;;;7.32;100.00;101254.75;5052346;28;20409;-93
2023/05/14 02:15:21;;;;;;;;;;;;;;;7.31;100.00;101253.88;5053602;28;20446;-92
2023/05/14 02:17:46;;;;;;;;;;;;;;;7.24;100.00;101250.69;5053865;28;19960;-92
2023/05/14 02:20:12;;;;;;;;;;;;;;;7.13;100.00;101250.16;5053831;28;19913;-92
2023/05/14 02:22:37;;;;;;;;;;;;;;;7.18;100.00;101253.44;5052442;28;19923;-92
2023/05/14 02:25:02;;;;;;;;;;;;;;;7.12;100.00;101263.91;5053876;28;19917;-92
2023/05/14 02:27:28;;;;;;;;;;;;;;;7.05;100.00;101258.09;5051414;28;20260;-93
2023/05/14 02:29:53;;;;;;;;;;;;;;;7.01;100.00;101260.81;5052782;28;20013;-92
2023/05/14 02:32:18;;;;;;;;;;;;;;;7.03;100.00;101254.75;5051853;28;19917;-93
2023/05/14 02:34:44;;;;;;;;;;;;;;;6.97;100.00;101254.06;5051661;28;19916;-92
2023/05/14 02:37:09;;;;;;;;;;;;;;;6.91;100.00;101254.25;5052172;28;19916;-92
2023/05/14 02:39:34;;;;;;;;;;;;;;;6.87;100.00;101253.50;5052612;28;19917;-92
2023/05/14 02:42:00;;;;;;;;;;;;;;;6.93;100.00;101253.34;5052533;28;19921;-92
2023/05/14 02:44:25;;;;;;;;;;;;;;;7.00;100.00;101254.84;5050997;28;19916;-93
2023/05/14 02:46:50;;;;;;;;;;;;;;;6.89;100.00;101246.59;5052820;28;20019;-93
2023/05/14 02:49:15;;;;;;;;;;;;;;;6.82;100.00;101240.78;5050733;28;19917;-93
2023/05/14 02:51:40;;;;;;;;;;;;;;;6.91;100.00;101236.31;5052875;28;19923;-94
2023/05/14 02:54:06;;;;;;;;;;;;;;;7.00;100.00;101239.44;5054977;28;19917;-93
2023/05/14 02:56:31;;;;;;;;;;;;;;;7.03;100.00;101235.94;5054995;28;19968;-92
2023/05/14 02:58:56;;;;;;;;;;;;;;;7.03;100.00;101241.06;5056142;28;19912;-92
2023/05/14 03:01:21;;;;;;;;;;;;;;;6.79;100.00;101235.75;5054733;28;20329;-92
2023/05/14 03:03:47;;;;;;;;;;;;;;;6.92;100.00;101250.78;5054698;28;19924;-92
2023/05/14 03:06:12;;;;;;;;;;;;;;;6.81;100.00;101239.13;5054625;28;19916;-92
2023/05/14 03:08:37;;;;;;;;;;;;;;;6.73;100.00;101225.69;5056187;28;20424;-92
2023/05/14 03:11:03;;;;;;;;;;;;;;;6.70;100.00;101224.91;5055579;28;19939;-93
2023/05/14 03:13:28;;;;;;;;;;;;;;;6.58;100.00;101226.09;5055867;28;19917;-93
2023/05/14 03:15:53;;;;;;;;;;;;;;;6.50;100.00;101228.06;5055779;28;19937;-92
2023/05/14 03:18:18;;;;;;;;;;;;;;;6.42;100.00;101226.53;5055608;28;20015;-92
2023/05/14 03:20:44;;;;;;;;;;;;;;;6.44;100.00;101223.94;5055649;28;20011;-93
2023/05/14 03:23:09;;;;;;;;;;;;;;;6.48;100.00;101222.97;5054307;28;19917;-92
2023/05/14 03:25:34;;;;;;;;;;;;;;;6.41;100.00;101219.75;5053978;28;20286;-92
2023/05/14 03:27:59;;;;;;;;;;;;;;;6.45;100.00;101217.09;5055282;28;19963;-92
2023/05/14 03:30:25;;;;;;;;;;;;;;;6.55;100.00;101215.94;5054208;28;19967;-93
2023/05/14 03:32:50;;;;;;;;;;;;;;;6.62;100.00;101217.44;5054304;28;20387;-93
2023/05/14 03:35:15;;;;;;;;;;;;;;;6.62;100.00;101213.16;5055611;28;20442;-92
2023/05/14 03:37:41;;;;;;;;;;;;;;;6.62;100.00;101204.63;5054039;28;19967;-93
2023/05/14 03:40:06;;;;;;;;;;;;;;;6.62;100.00;101204.63;5054070;28;20016;-93
2023/05/14 03:42:31;;;;;;;;;;;;;;;6.59;100.00;101203.00;5055349;28;19917;-92
2023/05/14 03:44:56;;;;;;;;;;;;;;;6.50;100.00;101202.41;5055272;28;19924;-93
2023/05/14 03:47:22;;;;;;;;;;;;;;;6.41;100.00;101199.22;5054179;28;19970;-92
2023/05/14 03:49:47;;;;;;;;;;;;;;;6.49;100.00;101191.31;5053927;28;19923;-92
2023/05/14 03:52:12;;;;;;;;;;;;;;;6.55;100.00;101193.69;5055223;28;20370;-93
2023/05/14 03:54:40;;;;;;;;;;;;;;;6.52;100.00;101188.66;5054057;28;20282;-93
2023/05/14 03:57:05;;;;;;;;;;;;;;;6.43;100.00;101192.31;5055115;28;20026;-94
2023/05/14 03:59:30;;;;;;;;;;;;;;;6.27;100.00;101180.81;5053690;28;20363;-94
2023/05/14 04:01:55;;;;;;;;;;;;;;;6.24;100.00;101180.88;5054571;28;19921;-93
2023/05/14 04:04:20;;;;;;;;;;;;;;;6.17;100.00;101180.22;5053828;28;19924;-92
2023/05/14 04:06:46;;;;;;;;;;;;;;;6.24;100.00;101180.06;5054785;28;20389;-93
2023/05/14 04:09:11;;;;;;;;;;;;;;;6.29;100.00;101178.19;5053334;28;19925;-94
2023/05/14 04:11:36;;;;;;;;;;;;;;;6.32;100.00;101178.97;5053525;28;20363;-93
2023/05/14 04:14:02;;;;;;;;;;;;;;;6.36;100.00;101179.72;5054734;28;20000;-93
2023/05/14 04:16:27;;;;;;;;;;;;;;;6.37;100.00;101182.25;5054884;28;19916;-93
2023/05/14 04:18:52;;;;;;;;;;;;;;;6.40;100.00;101177.03;5053461;28;20277;-92
2023/05/14 04:21:17;;;;;;;;;;;;;;;6.44;100.00;101177.78;5053148;28;19917;-93
2023/05/14 04:23:43;;;;;;;;;;;;;;;6.45;100.00;101183.75;5053251;28;19931;-93
2023/05/14 04:26:08;;;;;;;;;;;;;;;6.44;100.00;101177.78;5053195;28;19931;-93
2023/05/14 04:28:33;;;;;;;;;;;;;;;6.49;100.00;101175.09;5054485;28;19917;-93
2023/05/14 04:30:58;;;;;;;;;;;;;;;6.44;100.00;101182.91;5054428;28;19963;-95
2023/05/14 04:33:24;;;;;;;;;;;;;;;6.49;100.00;101182.78;5054235;28;19917;-93
2023/05/14 04:35:51;;;;;;;;;;;;;;;6.51;100.00;101179.28;5054363;28;19924;-93
2023/05/14 04:38:16;;;;;;;;;;;;;;;6.59;100.00;101184.19;5052990;28;20326;-93
2023/05/14 04:40:41;;;;;;;;;;;;;;;6.60;100.00;101183.31;5054412;28;19924;-93
2023/05/14 04:43:07;;;;;;;;;;;;;;;6.68;100.00;101178.78;5053316;28;19960;-93
2023/05/14 04:45:32;;;;;;;;;;;;;;;6.78;100.00;101171.66;5052722;28;19916;-93
2023/05/14 04:47:57;;;;;;;;;;;;;;;6.86;100.00;101175.69;5053218;28;19966;-92
2023/05/14 04:50:22;;;;;;;;;;;;;;;6.96;100.00;101170.28;5053859;28;19917;-93
2023/05/14 04:52:47;;;;;;;;;;;;;;;6.93;100.00;101171.22;5053911;28;20443;-93
2023/05/14 04:55:13;;;;;;;;;;;;;;;6.89;100.00;101172.19;5052514;28;19970;-93
2023/05/14 04:57:38;;;;;;;;;;;;;;;7.01;100.00;101168.41;5053085;28;19917;-92
2023/05/14 05:00:08;;;;;;;;;;;;;;;7.12;100.00;101168.06;5053770;28;20286;-92
2023/05/14 05:02:33;;;;;;;;;;;;;;;7.20;100.00;101168.69;5053602;28;19917;-92
2023/05/14 05:04:58;;;;;;;;;;;;;;;7.26;100.00;101168.47;5052506;28;20403;-92
2023/05/14 05:07:24;;;;;;;;;;;;;;;7.29;100.00;101170.94;5052400;28;19986;-92
2023/05/14 05:09:49;;;;;;;;;;;;;;;7.41;100.00;101172.25;5053191;28;19917;-92
2023/05/14 05:12:14;;;;;;;;;;;;;;;7.42;100.00;101168.81;5053617;28;19978;-91
2023/05/14 05:14:39;;;;;;;;;;;;;;;7.45;100.00;101168.72;5051345;28;19928;-92
2023/05/14 05:17:05;;;;;;;;;;;;;;;7.54;100.00;101165.84;5052227;28;19916;-92
2023/05/14 05:19:30;;;;;;;;;;;;;;;7.58;100.00;101169.97;5053410;28;20396;-91
2023/05/14 05:21:55;;;;;;;;;;;;;;;7.60;100.00;101175.06;5053276;28;19923;-90
2023/05/14 05:24:20;;;;;;;;;;;;;;;7.64;100.00;101172.34;5052954;28;19988;-91
2023/05/14 05:26:46;;;;;;;;;;;;;;;7.72;100.00;101175.50;5053103;28;19924;-91
2023/05/14 05:29:11;;;;;;;;;;;;;;;7.77;100.00;101170.19;5053063;28;19927;-93
2023/05/14 05:31:36;;;;;;;;;;;;;;;7.82;100.00;101172.63;5053626;28;19924;-93
2023/05/14 05:34:02;;;;;;;;;;;;;;;7.78;100.00;101169.34;5051936;28;19921;-92
2023/05/14 05:36:27;;;;;;;;;;;;;;;7.83;100.00;101176.88;5052962;28;19920;-91
2023/05/14 05:38:53;;;;;;;;;;;;;;;7.84;100.00;101166.53;5052935;28;19917;-92
2023/05/14 05:41:18;;;;;;;;;;;;;;;7.91;100.00;101168.00;5051793;28;20422;-94
2023/05/14 05:43:43;;;;;;;;;;;;;;;7.96;100.00;101165.28;5053003;28;19916;-92
2023/05/14 05:46:08;;;;;;;;;;;;;;;7.98;100.00;101163.50;5053289;28;19917;-91
2023/05/14 05:48:34;;;;;;;;;;;;;;;8.04;100.00;101163.25;5052620;28;19917;-91
2023/05/14 05:50:59;;;;;;;;;;;;;;;8.08;100.00;101170.00;5051460;28;20019;-92
2023/05/14 05:53:24;;;;;;;;;;;;;;;8.22;100.00;101166.06;5052637;28;19916;-91
2023/05/14 05:55:50;;;;;;;;;;;;;;;8.15;100.00;101165.47;5051903;28;19959;-93
2023/05/14 05:58:16;;;;;;;;;;;;;;;8.08;100.00;101166.59;5051221;28;19924;-92
2023/05/14 06:00:41;;;;;;;;;;;;;;;8.13;100.00;101170.66;5053091;28;20419;-92
2023/05/14 06:03:06;;;;;;;;;;;;;;;8.16;100.00;101172.28;5051964;28;19916;-93
2023/05/14 06:05:32;;;;;;;;;;;;;;;8.19;100.00;101161.06;5051340;28;19925;-91
2023/05/14 06:07:57;;;;;;;;;;;;;;;8.26;100.00;101165.06;5052539;28;20018;-92
2023/05/14 06:10:23;;;;;;;;;;;;;;;8.35;100.00;101177.59;5052667;28;20050;-92
2023/05/14 06:12:48;;;;;;;;;;;;;;;8.33;100.00;101169.94;5074236;28;19962;-94
2023/05/14 06:15:13;;;;;;;;;;;;;;;8.46;100.00;101170.38;5076970;28;19927;-92
2023/05/14 06:17:38;;;;;;;;;;;;;;;8.51;100.00;101178.78;5071199;28;19978;-91
2023/05/14 06:20:04;;;;;;;;;;;;;;;8.63;100.00;101179.19;5069325;28;19974;-89
2023/05/14 06:22:29;;;;;;;;;;;;;;;8.57;100.00;101177.69;5070746;28;19931;-94
2023/05/14 06:24:55;;;;;;;;;;;;;;;8.57;100.00;101170.81;5069698;28;20442;-91
2023/05/14 06:27:20;;;;;;;;;;;;;;;8.68;100.00;101159.25;5069332;28;19942;-94
2023/05/14 06:29:45;;;;;;;;;;;;;;;8.78;100.00;101161.44;5070614;28;19924;-91
2023/05/14 06:32:14;;;;;;;;;;;;;;;8.82;100.00;101159.56;5071376;28;19924;-90
2023/05/14 06:34:39;;;;;;;;;;;;;;;8.98;100.00;101158.09;5064975;28;20361;-89
2023/05/14 06:37:05;;;;;;;;;;;;;;;9.04;100.00;101161.31;5050775;28;19964;-92
2023/05/14 06:39:31;;;;;;;;;;;;;;;9.08;100.00;101162.88;5063104;28;20413;-93
2023/05/14 06:41:56;;;;;;;;;;;;;;;9.26;100.00;101162.13;5069064;28;19917;-91
2023/05/14 06:44:21;;;;;;;;;;;;;;;9.32;100.00;101156.75;5071273;28;20347;-93
2023/05/14 06:46:46;;;;;;;;;;;;;;;9.33;100.00;101153.25;5065942;28;19920;-92
2023/05/14 06:49:12;;;;;;;;;;;;;;;9.33;100.00;101158.41;5065090;28;19928;-91
2023/05/14 06:51:37;;;;;;;;;;;;;;;9.53;100.00;101155.00;5058482;28;19921;-93
2023/05/14 06:54:03;;;;;;;;;;;;;;;9.66;100.00;101155.34;5069047;28;19925;-92
2023/05/14 06:56:28;;;;;;;;;;;;;;;9.87;100.00;101153.59;5067197;28;19979;-92
2023/05/14 06:58:53;;;;;;;;;;;;;;;9.96;100.00;101158.34;5058508;28;19921;-91
2023/05/14 07:01:18;;;;;;;;;;;;;;;10.10;100.00;101152.59;5062494;28;20044;-91
2023/05/14 07:03:44;;;;;;;;;;;;;;;10.19;100.00;101154.78;5053786;28;19928;-91
2023/05/14 07:06:09;;;;;;;;;;;;;;;10.31;100.00;101147.41;5050350;28;19921;-92
2023/05/14 07:08:34;;;;;;;;;;;;;;;10.51;100.00;101144.78;5055015;28;20373;-94
2023/05/14 07:11:00;;;;;;;;;;;;;;;10.59;100.00;101134.09;5048573;28;19924;-92
2023/05/14 07:13:26;;;;;;;;;;;;;;;10.73;100.00;101139.47;5055707;28;19931;-92
2023/05/14 07:15:54;;;;;;;;;;;;;;;10.69;100.00;101128.44;5046510;28;20410;-92
2023/05/14 07:18:19;;;;;;;;;;;;;;;10.79;100.00;101138.34;5050511;28;20033;-92
2023/05/14 07:20:44;;;;;;;;;;;;;;;10.85;100.00;101132.88;5067606;28;20462;-91
2023/05/14 07:23:10;;;;;;;;;;;;;;;11.05;100.00;101135.34;5067550;28;19921;-91
2023/05/14 07:25:35;;;;;;;;;;;;;;;11.04;100.00;101133.66;5052943;28;19931;-94
2023/05/14 07:28:00;;;;;;;;;;;;;;;10.94;100.00;101132.44;5064132;28;19964;-92
2023/05/14 07:30:26;;;;;;;;;;;;;;;11.10;100.00;101140.31;5051651;28;19924;-93
2023/05/14 07:32:51;;;;;;;;;;;;;;;11.14;99.44;101132.31;5066010;28;20023;-91
2023/05/14 07:35:16;;;;;;;;;;;;;;;11.07;99.76;101128.38;5065539;28;20374;-92
2023/05/14 07:37:42;;;;;;;;;;;;;;;10.75;100.00;101131.63;5070610;28;20016;-91
2023/05/14 07:40:07;;;;;;;;;;;;;;;11.09;100.00;101126.53;5068730;28;19932;-96
2023/05/14 07:42:33;;;;;;;;;;;;;;;11.37;100.00;101127.78;5064286;28;19928;-90
2023/05/14 07:44:58;;;;;;;;;;;;;;;11.48;99.51;101128.06;5059551;28;20362;-92
2023/05/14 07:47:23;;;;;;;;;;;;;;;11.59;100.00;101130.13;5061756;28;19917;-94
2023/05/14 07:49:52;;;;;;;;;;;;;;;11.81;100.00;101124.69;5067049;28;19924;-92
2023/05/14 07:52:17;;;;;;;;;;;;;;;11.84;100.00;101140.03;5056722;28;19924;-91
2023/05/14 07:54:43;;;;;;;;;;;;;;;11.88;100.00;101127.81;5074809;28;19912;-93
2023/05/14 07:57:08;;;;;;;;;;;;;;;11.81;100.00;101132.44;5065331;28;19921;-92
2023/05/14 07:59:33;;;;;;;;;;;;;;;11.84;100.00;101123.69;5067277;28;20003;-91
2023/05/14 08:01:58;;;;;;;;;;;;;;;11.85;100.00;101125.34;5062380;28;20311;-92
2023/05/14 08:04:24;;;;;;;;;;;;;;;11.76;100.00;101131.84;5059680;28;19943;-92
2023/05/14 08:06:50;;;;;;;;;;;;;;;11.70;100.00;101132.97;5058718;28;19966;-94
2023/05/14 08:09:15;;;;;;;;;;;;;;;12.05;100.00;101127.78;5059783;28;19963;-94
2023/05/14 08:11:40;;;;;;;;;;;;;;;12.08;100.00;101132.78;5071944;28;19970;-92
2023/05/14 08:14:05;;;;;;;;;;;;;;;12.18;100.00;101138.31;5061764;28;20311;-93
2023/05/14 08:16:31;;;;;;;;;;;;;;;12.41;100.00;101132.75;5057832;28;20021;-91
2023/05/14 08:18:56;;;;;;;;;;;;;;;12.25;100.00;101129.31;5062622;28;19921;-94
2023/05/14 08:21:21;;;;;;;;;;;;;;;12.23;100.00;101131.13;5058304;28;20015;-92
2023/05/14 08:23:46;;;;;;;;;;;;;;;12.31;100.00;101131.53;5056878;28;19920;-91
2023/05/14 08:26:12;;;;;;;;;;;;;;;12.03;100.00;101128.78;5065710;28;20019;-92
2023/05/14 08:28:37;;;;;;;;;;;;;;;12.07;100.00;101131.13;5069149;28;19920;-91
2023/05/14 08:31:02;;;;;;;;;;;;;;;12.26;100.00;101124.94;5071742;28;19928;-91
2023/05/14 08:33:27;;;;;;;;;;;;;;;12.24;100.00;101122.47;5060008;28;20341;-90
2023/05/14 08:35:53;;;;;;;;;;;;;;;11.98;100.00;101114.31;5061348;28;20015;-89
2023/05/14 08:38:18;;;;;;;;;;;;;;;12.01;100.00;101125.44;5071971;28;19920;-89
2023/05/14 08:40:48;;;;;;;;;;;;;;;12.08;100.00;101112.09;5067360;28;20433;-95
2023/05/14 08:43:15;;;;;;;;;;;;;;;12.29;100.00;101123.06;5061142;28;19940;-93
2023/05/14 08:45:41;;;;;;;;;;;;;;;12.15;100.00;101116.00;5064686;28;20309;-92
2023/05/14 08:48:09;;;;;;;;;;;;;;;12.40;100.00;101107.75;5064309;28;19928;-92
2023/05/14 08:50:35;;;;;;;;;;;;;;;12.41;100.00;101106.00;5062535;28;21187;-94
2023/05/14 08:53:00;;;;;;;;;;;;;;;12.41;100.00;101098.22;5057570;28;20381;-94
2023/05/14 08:55:25;;;;;;;;;;;;;;;12.43;100.00;101099.81;5053982;28;19952;-92
2023/05/14 08:57:50;;;;;;;;;;;;;;;12.76;100.00;101098.88;5060466;28;19920;-93
2023/05/14 09:00:17;;;;;;;;;;;;;;;12.96;100.00;101102.13;5054788;28;19916;-90
2023/05/14 09:02:43;;;;;;;;;;;;;;;13.07;100.00;101099.75;5063637;28;19938;-90
2023/05/14 09:05:09;;;;;;;;;;;;;;;13.19;100.00;101096.47;5075213;28;19917;-91
2023/05/14 09:07:34;;;;;;;;;;;;;;;13.26;100.00;101087.41;5060162;28;19917;-91
2023/05/14 09:10:00;;;;;;;;;;;;;;;13.67;100.00;101093.69;5056609;28;19960;-92
2023/05/14 09:12:26;;;;;;;;;;;;;;;13.83;96.94;101097.03;5070949;28;19927;-91
2023/05/14 09:14:51;;;;;;;;;;;;;;;13.77;99.42;101091.38;5059998;28;20007;-92
2023/05/14 09:17:17;;;;;;;;;;;;;;;13.60;97.87;101095.78;5060680;28;19921;-93
2023/05/14 09:19:43;;;;;;;;;;;;;;;13.90;99.36;101094.91;5056595;28;20015;-92
2023/05/14 09:22:10;;;;;;;;;;;;;;;13.80;97.38;101092.03;5063551;28;19999;-92
2023/05/14 09:24:37;;;;;;;;;;;;;;;13.85;98.16;101089.13;5069727;28;19963;-92
2023/05/14 09:27:03;;;;;;;;;;;;;;;14.16;95.07;101102.84;5062425;28;20003;-92
2023/05/14 09:29:28;;;;;;;;;;;;;;;14.41;93.63;101087.41;5071378;28;20453;-93
2023/05/14 09:31:54;;;;;;;;;;;;;;;14.59;90.09;101084.59;5070582;28;20301;-92
2023/05/14 09:34:27;;;;;;;;;;;;;;;14.35;91.45;101092.97;5072799;28;19917;-92
2023/05/14 09:36:58;;;;;;;;;;;;;;;14.63;91.37;101089.50;5073194;28;20361;-92
2023/05/14 09:39:24;;;;;;;;;;;;;;;14.15;94.27;101096.81;5071249;28;20011;-92
2023/05/14 09:41:50;;;;;;;;;;;;;;;13.85;96.36;101099.50;5073081;28;20015;-92
2023/05/14 09:44:16;;;;;;;;;;;;;;;14.34;94.03;101101.69;5071540;28;19924;-92
2023/05/14 09:46:41;;;;;;;;;;;;;;;14.58;92.95;101091.53;5071321;28;20294;-92
2023/05/14 09:49:06;;;;;;;;;;;;;;;14.35;91.78;101087.78;5071186;28;20598;-92
2023/05/14 09:51:31;;;;;;;;;;;;;;;14.62;90.58;101094.78;5072806;28;20017;-92
2023/05/14 09:53:57;;;;;;;;;;;;;;;14.99;89.08;101095.81;5071459;28;19924;-91
2023/05/14 09:56:22;;;;;;;;;;;;;;;15.31;86.83;101093.69;5072717;28;19917;-92
2023/05/14 09:58:48;;;;;;;;;;;;;;;15.82;82.27;101096.31;5072267;28;20004;-91
2023/05/14 10:01:16;;;;;;;;;;;;;;;16.44;79.04;101090.25;5070643;28;20007;-92
2023/05/14 10:03:42;;;;;;;;;;;;;;;16.68;76.27;101092.88;5071106;28;19916;-92
2023/05/14 10:06:09;;;;;;;;;;;;;;;16.55;78.75;101096.47;5072486;28;19916;-91
2023/05/14 10:08:35;;;;;;;;;;;;;;;16.75;78.51;101095.84;5072380;28;19916;-92
2023/05/14 10:11:07;;;;;;;;;;;;;;;17.13;75.19;101091.41;5072272;28;20333;-93
2023/05/14 10:13:36;;;;;;;;;;;;;;;17.03;74.18;101092.06;5071115;28;19917;-92
2023/05/14 10:16:16;;;;;;;;;;;;;;;17.29;73.92;101091.91;5072043;28;19917;-92
2023/05/14 10:18:47;;;;;;;;;;;;;;;17.84;71.97;101097.31;5071091;28;19916;-93
2023/05/14 10:21:13;;;;;;;;;;;;;;;18.08;71.28;101100.63;5072556;28;19967;-92
2023/05/14 10:23:39;;;;;;;;;;;;;;;18.72;68.16;101091.19;5070957;28;20401;-92
2023/05/14 10:26:05;;;;;;;;;;;;;;;19.33;64.61;101093.19;5072319;28;19916;-93
2023/05/14 10:28:31;;;;;;;;;;;;;;;19.67;62.66;101085.91;5070833;28;20289;-92
2023/05/14 10:30:56;;;;;;;;;;;;;;;19.66;62.77;101087.72;5072185;28;20353;-93
2023/05/14 10:33:21;;;;;;;;;;;;;;;19.28;63.19;101079.66;5072379;28;19917;-93
2023/05/14 10:35:51;;;;;;;;;;;;;;;20.04;61.46;101075.72;5071313;28;19916;-93
2023/05/14 10:38:16;;;;;;;;;;;;;;;20.36;60.37;101063.38;5072050;28;20011;-92
2023/05/14 10:40:41;;;;;;;;;;;;;;;20.66;57.54;101065.09;5070931;28;20020;-92
2023/05/14 10:43:07;;;;;;;;;;;;;;;20.81;57.86;101058.44;5071750;28;19916;-92
2023/05/14 10:45:33;;;;;;;;;;;;;;;21.21;56.69;101061.81;5072117;28;20366;-92
2023/05/14 10:47:58;;;;;;;;;;;;;;;21.71;54.84;101059.75;5072236;28;19916;-93
2023/05/14 10:50:25;;;;;;;;;;;;;;;21.07;54.43;101050.81;5072582;28;20424;-91
2023/05/14 10:52:51;;;;;;;;;;;;;;;21.46;55.10;101049.88;5071911;28;20054;-91
2023/05/14 10:55:16;;;;;;;;;;;;;;;21.90;53.27;101047.50;5072014;28;19958;-92
2023/05/14 10:57:42;;;;;;;;;;;;;;;21.51;53.27;101052.94;5072062;28;19924;-92
2023/05/14 11:00:07;;;;;;;;;;;;;;;22.62;51.67;101049.19;5072219;28;19917;-91
2023/05/14 11:02:36;;;;;;;;;;;;;;;22.41;51.97;101044.28;5071997;28;20354;-93
2023/05/14 11:05:07;;;;;;;;;;;;;;;21.69;53.25;101048.56;5071907;28;19917;-92
2023/05/14 11:07:38;;;;;;;;;;;;;;;21.00;53.88;101054.97;5071889;28;19923;-92
2023/05/14 11:10:11;;;;;;;;;;;;;;;20.27;56.01;101051.94;5071472;28;20003;-92
2023/05/14 11:12:39;;;;;;;;;;;;;;;19.92;57.37;101053.22;5072016;28;19920;-92
2023/05/14 11:15:05;;;;;;;;;;;;;;;19.76;58.30;101052.91;5075749;28;19916;-92
2023/05/14 11:17:31;;;;;;;;;;;;;;;19.41;58.83;101059.31;5075817;28;19923;-92
2023/05/14 11:19:56;;;;;;;;;;;;;;;19.55;58.32;101043.28;5075536;28;19971;-92
2023/05/14 11:22:22;;;;;;;;;;;;;;;20.26;57.15;101035.38;5075379;28;19916;-92
2023/05/14 11:24:47;;;;;;;;;;;;;;;19.90;57.19;101042.06;5073899;28;19917;-92
2023/05/14 11:27:13;;;;;;;;;;;;;;;19.78;59.10;101040.50;5075318;28;19917;-92
2023/05/14 11:29:42;;;;;;;;;;;;;;;20.45;57.20;101036.34;5075165;28;19928;-92
2023/05/14 11:32:07;;;;;;;;;;;;;;;20.40;57.43;101031.50;5074048;28;19986;-92
2023/05/14 11:34:36;;;;;;;;;;;;;;;20.41;56.47;101032.31;5075578;28;20362;-92
2023/05/14 11:37:05;;;;;;;;;;;;;;;20.59;56.61;101032.50;5075452;28;19927;-92
2023/05/14 11:39:31;;;;;;;;;;;;;;;20.98;54.96;101025.41;5075486;28;19923;-92
2023/05/14 11:41:57;;;;;;;;;;;;;;;21.28;54.07;101019.09;5073953;28;20341;-91
2023/05/14 11:44:22;;;;;;;;;;;;;;;21.27;52.37;101020.09;5075133;28;19970;-92
2023/05/14 11:46:55;;;;;;;;;;;;;;;20.74;53.03;101012.75;5075496;28;19923;-91
2023/05/14 11:49:21;;;;;;;;;;;;;;;20.27;54.06;101016.03;5075032;28;19959;-93
2023/05/14 11:51:46;;;;;;;;;;;;;;;21.01;49.94;101008.56;5074826;28;19917;-93
2023/05/14 11:54:12;;;;;;;;;;;;;;;20.41;50.87;101009.56;5073757;28;20439;-91
2023/05/14 11:56:38;;;;;;;;;;;;;;;20.91;50.80;101009.41;5074978;28;20359;-92
2023/05/14 11:59:03;;;;;;;;;;;;;;;20.55;51.45;101012.72;5073706;28;19924;-93
2023/05/14 12:01:33;;;;;;;;;;;;;;;21.01;50.98;101009.38;5073676;28;19916;-92
2023/05/14 12:03:59;;;;;;;;;;;;;;;21.01;51.78;101011.19;5075022;28;19917;-92
2023/05/14 12:06:29;;;;;;;;;;;;;;;20.94;50.46;101009.09;5073552;28;19921;-92
2023/05/14 12:08:54;;;;;;;;;;;;;;;21.26;49.22;101012.34;5074053;28;20007;-92
2023/05/14 12:11:20;;;;;;;;;;;;;;;21.24;48.25;101015.13;5074766;28;20454;-91
2023/05/14 12:13:45;;;;;;;;;;;;;;;21.57;48.23;101012.94;5073540;28;20403;-91
2023/05/14 12:16:10;;;;;;;;;;;;;;;21.97;46.37;101006.47;5074777;28;19916;-92
2023/05/14 12:18:35;;;;;;;;;;;;;;;22.04;46.51;101002.28;5073276;28;19917;-91
2023/05/14 12:21:01;;;;;;;;;;;;;;;21.21;46.21;101010.13;5073308;28;19917;-92
2023/05/14 12:23:28;;;;;;;;;;;;;;;21.29;45.65;101015.53;5074299;28;20283;-92
2023/05/14 12:25:53;;;;;;;;;;;;;;;21.31;46.77;101010.09;5073335;28;19970;-91
2023/05/14 12:28:18;;;;;;;;;;;;;;;21.15;47.01;101000.22;5074304;28;19917;-92